createdAt,value
2022-11-22T00:00:55.907Z,83.89
2022-11-22T00:03:24.025Z,83.88
2022-11-22T00:05:52.293Z,84.09
2022-11-22T00:08:20.570Z,83.77
2022-11-22T00:10:49.877Z,83.80
2022-11-22T00:13:19.422Z,83.79
2022-11-22T00:15:59.492Z,84.00
2022-11-22T00:18:29.064Z,83.92
2022-11-22T00:20:57.346Z,83.99
2022-11-22T00:23:25.481Z,84.04
2022-11-22T00:25:53.562Z,83.72
2022-11-22T00:28:21.722Z,83.93
2022-11-22T00:30:49.886Z,84.00
2022-11-22T00:33:18.012Z,84.14
2022-11-22T00:35:46.746Z,84.19
2022-11-22T00:38:14.910Z,83.98
2022-11-22T00:40:43.517Z,84.08
2022-11-22T00:43:11.863Z,84.25
2022-11-22T00:45:43.119Z,84.28
2022-11-22T00:48:11.305Z,84.34
2022-11-22T00:50:39.525Z,84.41
2022-11-22T00:53:07.687Z,84.28
2022-11-22T00:55:35.997Z,84.39
2022-11-22T00:58:04.102Z,84.42
2022-11-22T01:00:32.317Z,84.61
2022-11-22T01:03:00.544Z,84.61
2022-11-22T01:05:28.825Z,84.66
2022-11-22T01:07:57.050Z,84.65
2022-11-22T01:10:25.179Z,84.84
2022-11-22T01:12:53.331Z,84.74
2022-11-22T01:15:21.661Z,84.94
2022-11-22T01:17:49.992Z,85.07
2022-11-22T01:20:18.298Z,85.10
2022-11-22T01:22:46.439Z,85.06
2022-11-22T01:25:14.654Z,85.14
2022-11-22T01:27:42.785Z,85.36
2022-11-22T01:30:12.276Z,85.19
2022-11-22T01:32:40.411Z,85.29
2022-11-22T01:35:10.639Z,85.26
2022-11-22T01:37:39.422Z,85.51
2022-11-22T01:40:09.879Z,85.27
2022-11-22T01:42:59.668Z,85.39
2022-11-22T01:45:43.139Z,85.59
2022-11-22T01:48:44.012Z,85.76
2022-11-22T01:51:44.242Z,85.44
2022-11-22T01:54:18.871Z,85.58
2022-11-22T01:56:53.688Z,85.86
2022-11-22T01:59:27.021Z,85.50
2022-11-22T02:01:55.572Z,85.50
2022-11-22T02:04:32.271Z,85.52
2022-11-22T02:07:11.627Z,85.69
2022-11-22T02:09:42.543Z,85.73
2022-11-22T02:12:12.233Z,85.54
2022-11-22T02:14:40.765Z,85.52
2022-11-22T02:17:08.905Z,85.62
2022-11-22T02:19:45.999Z,85.59
2022-11-22T02:22:51.978Z,85.67
2022-11-22T02:25:51.147Z,85.75
2022-11-22T02:28:19.531Z,85.56
2022-11-22T02:30:47.663Z,85.74
2022-11-22T02:33:15.850Z,85.89
2022-11-22T02:35:44.686Z,85.68
2022-11-22T02:38:35.183Z,85.94
2022-11-22T02:41:09.216Z,85.96
2022-11-22T02:43:42.249Z,85.99
2022-11-22T02:46:20.840Z,86.08
2022-11-22T02:48:50.175Z,85.85
2022-11-22T02:51:20.163Z,86.01
2022-11-22T02:53:50.756Z,85.94
2022-11-22T02:56:19.305Z,85.94
2022-11-22T02:58:47.457Z,85.98
2022-11-22T03:01:15.770Z,85.87
2022-11-22T03:03:43.936Z,85.78
2022-11-22T03:06:12.108Z,85.84
2022-11-22T03:18:20.535Z,85.51
2022-11-22T03:20:48.684Z,85.69
2022-11-22T03:23:17.082Z,85.82
2022-11-22T03:25:45.280Z,85.69
2022-11-22T03:28:13.415Z,85.59
2022-11-22T03:30:42.806Z,85.83
2022-11-22T03:33:11.029Z,85.87
2022-11-22T03:35:39.473Z,85.72
2022-11-22T03:38:07.735Z,85.75
2022-11-22T03:40:35.960Z,85.88
2022-11-22T03:43:04.087Z,85.68
2022-11-22T03:45:32.256Z,85.78
2022-11-22T03:48:00.391Z,85.81
2022-11-22T03:50:28.598Z,85.88
2022-11-22T03:52:56.732Z,85.77
2022-11-22T03:55:24.876Z,85.81
2022-11-22T03:57:53.020Z,85.93
2022-11-22T04:00:21.384Z,86.05
2022-11-22T04:02:52.187Z,86.01
2022-11-22T04:05:20.316Z,85.90
2022-11-22T04:07:49.152Z,86.07
2022-11-22T04:10:22.038Z,86.12
2022-11-22T04:12:50.723Z,85.98
2022-11-22T04:15:18.884Z,86.00
2022-11-22T04:17:48.227Z,85.98
2022-11-22T04:20:47.767Z,86.05
2022-11-22T04:23:22.290Z,85.92
2022-11-22T04:25:53.875Z,86.10
2022-11-22T04:29:07.886Z,86.05
2022-11-22T04:31:32.522Z,86.18
2022-11-22T04:34:00.662Z,86.07
2022-11-22T04:36:28.943Z,85.85
2022-11-22T04:38:57.084Z,85.73
2022-11-22T04:41:25.205Z,85.77
2022-11-22T04:44:11.854Z,85.79
2022-11-22T04:46:39.962Z,85.83
2022-11-22T04:49:08.136Z,85.87
2022-11-22T04:51:55.153Z,85.96
2022-11-22T04:54:23.430Z,85.77
2022-11-22T04:56:51.529Z,85.89
2022-11-22T04:59:19.794Z,85.91
2022-11-22T05:01:47.957Z,85.86
2022-11-22T05:04:16.333Z,85.86
2022-11-22T05:06:44.535Z,85.75
2022-11-22T05:09:12.818Z,85.62
2022-11-22T05:11:40.957Z,85.67
2022-11-22T05:14:10.351Z,85.59
2022-11-22T05:16:38.453Z,85.69
2022-11-22T05:19:06.768Z,85.63
2022-11-22T05:21:37.624Z,85.71
2022-11-22T05:24:06.425Z,85.93
2022-11-22T05:26:36.585Z,85.70
2022-11-22T05:29:10.905Z,85.77
2022-11-22T05:31:39.954Z,85.39
2022-11-22T05:34:08.125Z,85.39
2022-11-22T05:36:36.259Z,85.31
2022-11-22T05:39:04.638Z,85.47
2022-11-22T05:41:32.930Z,85.46
2022-11-22T05:44:01.055Z,85.45
2022-11-22T05:46:31.342Z,85.55
2022-11-22T05:48:59.793Z,85.43
2022-11-22T05:51:34.595Z,84.95
2022-11-22T05:54:03.812Z,85.26
2022-11-22T05:56:32.061Z,85.32
2022-11-22T05:59:00.245Z,85.20
2022-11-22T06:01:28.614Z,85.08
2022-11-22T06:03:56.743Z,85.03
2022-11-22T06:06:24.872Z,85.40
2022-11-22T06:08:53.036Z,85.44
2022-11-22T06:11:26.797Z,85.07
2022-11-22T06:14:03.670Z,84.79
2022-11-22T06:16:32.216Z,85.01
2022-11-22T06:19:00.347Z,84.87
2022-11-22T06:21:50.158Z,84.89
2022-11-22T06:24:18.527Z,84.83
2022-11-22T06:26:46.632Z,85.13
2022-11-22T06:29:15.106Z,85.20
2022-11-22T06:31:43.199Z,85.00
2022-11-22T06:34:13.408Z,84.90
2022-11-22T06:36:41.547Z,84.59
2022-11-22T06:39:10.029Z,84.98
2022-11-22T06:41:38.495Z,84.96
2022-11-22T06:44:09.534Z,85.15
2022-11-22T06:46:38.975Z,85.43
2022-11-22T06:49:07.176Z,85.37
2022-11-22T06:51:35.711Z,85.06
2022-11-22T06:54:03.873Z,85.06
2022-11-22T06:56:37.676Z,85.26
2022-11-22T06:59:07.447Z,85.19
2022-11-22T07:01:37.528Z,85.05
2022-11-22T07:04:06.250Z,85.12
2022-11-22T07:06:38.316Z,85.07
2022-11-22T07:09:10.104Z,84.64
2022-11-22T07:11:40.278Z,85.10
2022-11-22T07:14:09.491Z,85.17
2022-11-22T07:16:38.920Z,85.17
2022-11-22T07:19:07.654Z,85.16
2022-11-22T07:21:37.553Z,85.11
2022-11-22T07:24:07.008Z,85.16
2022-11-22T07:26:35.364Z,85.26
2022-11-22T07:29:04.128Z,84.96
2022-11-22T07:31:32.393Z,85.20
2022-11-22T07:34:01.020Z,84.95
2022-11-22T07:36:30.325Z,84.95
2022-11-22T07:38:58.618Z,84.87
2022-11-22T07:41:26.757Z,85.15
2022-11-22T07:43:54.876Z,84.95
2022-11-22T07:46:31.621Z,84.99
2022-11-22T07:49:02.801Z,85.09
2022-11-22T07:51:31.336Z,84.82
2022-11-22T07:53:59.525Z,84.86
2022-11-22T07:56:27.678Z,84.78
2022-11-22T07:58:58.122Z,84.61
2022-11-22T08:01:26.305Z,84.32
2022-11-22T08:03:54.428Z,84.55
2022-11-22T08:06:22.559Z,84.45
2022-11-22T08:08:50.703Z,84.46
2022-11-22T08:11:18.849Z,84.57
2022-11-22T08:13:46.938Z,84.60
2022-11-22T08:16:16.602Z,84.33
2022-11-22T08:18:52.405Z,84.30
2022-11-22T08:21:20.559Z,84.03
2022-11-22T08:23:49.144Z,83.94
2022-11-22T08:26:18.130Z,83.58
2022-11-22T08:28:46.239Z,83.64
2022-11-22T08:31:21.111Z,83.59
2022-11-22T08:33:54.265Z,83.67
2022-11-22T08:36:22.708Z,83.50
2022-11-22T08:38:50.816Z,83.43
2022-11-22T08:41:19.130Z,83.40
2022-11-22T08:43:50.930Z,83.12
2022-11-22T08:46:20.008Z,83.12
2022-11-22T08:48:48.160Z,82.94
2022-11-22T08:51:16.262Z,83.13
2022-11-22T08:53:44.832Z,82.99
2022-11-22T08:56:16.077Z,82.83
2022-11-22T08:58:44.348Z,82.23
2022-11-22T09:01:18.445Z,82.23
2022-11-22T09:03:47.278Z,82.44
2022-11-22T09:09:36.953Z,81.72
2022-11-22T09:11:55.670Z,82.04
2022-11-22T09:14:23.936Z,81.22
2022-11-22T09:16:52.074Z,81.30
2022-11-22T09:19:20.194Z,81.30
2022-11-22T09:21:48.314Z,81.19
2022-11-22T09:24:16.614Z,81.21
2022-11-22T09:26:44.770Z,81.15
2022-11-22T09:29:13.140Z,81.20
2022-11-22T09:31:41.740Z,81.11
2022-11-22T09:34:09.967Z,81.35
2022-11-22T09:36:38.101Z,81.24
2022-11-22T09:39:06.317Z,81.46
2022-11-22T09:42:10.553Z,81.43
2022-11-22T09:45:22.065Z,81.37
2022-11-22T09:48:09.693Z,81.37
2022-11-22T09:51:12.584Z,81.09
2022-11-22T09:53:45.123Z,81.49
2022-11-22T09:56:17.017Z,81.40
2022-11-22T09:58:52.019Z,81.64
2022-11-22T10:01:40.954Z,81.72
2022-11-22T10:04:54.382Z,81.70
2022-11-22T10:07:44.788Z,81.22
2022-11-22T10:10:34.535Z,81.01
2022-11-22T10:13:19.562Z,81.20
2022-11-22T10:16:03.816Z,81.21
2022-11-22T10:18:40.710Z,80.89
2022-11-22T10:21:15.049Z,81.08
2022-11-22T10:23:44.980Z,80.83
2022-11-22T10:26:25.140Z,80.60
2022-11-22T10:28:59.197Z,80.64
2022-11-22T10:32:00.112Z,80.39
2022-11-22T10:35:08.450Z,80.24
2022-11-22T10:38:26.641Z,80.57
2022-11-22T10:41:21.601Z,80.60
2022-11-22T10:44:05.054Z,79.76
2022-11-22T10:46:41.631Z,79.71
2022-11-22T10:49:52.377Z,79.41
2022-11-22T10:52:45.081Z,79.64
2022-11-22T10:56:08.502Z,78.92
2022-11-22T10:59:24.358Z,78.28
2022-11-22T11:02:34.345Z,78.21
2022-11-22T11:05:07.776Z,77.74
2022-11-22T11:07:38.061Z,77.39
2022-11-22T11:10:32.323Z,77.35
2022-11-22T11:13:14.437Z,76.55
2022-11-22T11:15:55.815Z,76.73
2022-11-22T11:18:32.889Z,76.26
2022-11-22T11:21:00.997Z,76.75
2022-11-22T11:23:29.116Z,76.14
2022-11-22T11:26:34.163Z,74.57
2022-11-22T11:29:17.791Z,74.91
2022-11-22T11:31:51.938Z,75.06
2022-11-22T11:34:27.995Z,74.18
2022-11-22T11:36:58.729Z,74.04
2022-11-22T11:39:33.133Z,73.73
2022-11-22T11:42:25.210Z,72.12
2022-11-22T11:44:53.918Z,73.02
2022-11-22T11:47:34.434Z,73.28
2022-11-22T11:50:02.530Z,73.38
2022-11-22T11:52:31.835Z,73.44
2022-11-22T11:55:02.637Z,73.07
2022-11-22T11:57:35.492Z,72.85
2022-11-22T12:00:27.198Z,72.85
2022-11-22T12:03:07.741Z,72.27
2022-11-22T12:05:35.940Z,72.66
2022-11-22T12:08:29.658Z,72.62
2022-11-22T12:11:11.933Z,72.58
2022-11-22T12:14:18.544Z,72.79
2022-11-22T12:16:47.539Z,72.68
2022-11-22T12:19:44.386Z,72.35
2022-11-22T12:22:49.277Z,71.68
2022-11-22T12:25:36.202Z,71.96
2022-11-22T12:28:20.270Z,71.34
2022-11-22T12:31:12.018Z,71.31
2022-11-22T12:33:50.982Z,71.13
2022-11-22T12:36:41.883Z,71.03
2022-11-22T12:39:17.607Z,71.30
2022-11-22T12:41:48.955Z,71.61
2022-11-22T12:44:20.810Z,71.37
2022-11-22T12:46:54.919Z,71.49
2022-11-22T12:49:44.810Z,71.49
2022-11-22T12:52:28.391Z,71.69
2022-11-22T12:55:14.592Z,71.89
2022-11-22T12:58:21.000Z,72.03
2022-11-22T13:01:26.352Z,72.15
2022-11-22T13:04:16.162Z,72.61
2022-11-22T13:07:02.423Z,72.69
2022-11-22T13:09:41.039Z,72.59
2022-11-22T13:12:16.302Z,73.00
2022-11-22T13:14:55.306Z,73.17
2022-11-22T13:17:36.296Z,73.27
2022-11-22T13:20:29.090Z,73.36
2022-11-22T13:23:50.042Z,73.50
2022-11-22T13:26:53.873Z,73.85
2022-11-22T13:29:27.111Z,73.93
2022-11-22T13:32:13.304Z,73.89
2022-11-22T13:35:13.979Z,74.16
2022-11-22T13:37:49.372Z,74.40
2022-11-22T13:40:44.116Z,74.60
2022-11-22T13:43:21.586Z,74.85
2022-11-22T13:46:01.411Z,74.88
2022-11-22T13:48:41.464Z,74.95
2022-11-22T13:51:16.945Z,75.07
2022-11-22T13:53:48.029Z,75.52
2022-11-22T13:56:16.165Z,75.63
2022-11-22T13:59:15.286Z,75.47
2022-11-22T14:01:43.463Z,75.78
2022-11-22T14:04:19.752Z,75.98
2022-11-22T14:06:49.189Z,76.06
2022-11-22T14:09:52.582Z,76.03
2022-11-22T14:12:57.785Z,76.08
2022-11-22T14:16:05.899Z,76.21
2022-11-22T14:18:46.238Z,76.31
2022-11-22T14:21:58.079Z,76.39
2022-11-22T14:24:56.732Z,76.31
2022-11-22T14:27:48.276Z,76.38
2022-11-22T14:30:39.700Z,76.47
2022-11-22T14:33:21.969Z,76.41
2022-11-22T14:36:09.491Z,76.34
2022-11-22T14:38:40.070Z,75.99
2022-11-22T14:41:26.848Z,76.35
2022-11-22T14:44:16.286Z,76.30
2022-11-22T14:46:55.797Z,76.36
2022-11-22T14:49:38.791Z,76.40
2022-11-22T14:52:32.712Z,76.48
2022-11-22T14:55:06.201Z,76.59
2022-11-22T14:57:37.112Z,76.67
2022-11-22T15:00:23.269Z,76.92
2022-11-22T15:03:13.309Z,76.83
2022-11-22T15:09:20.085Z,76.85
2022-11-22T15:10:00.084Z,76.71
2022-11-22T15:12:49.914Z,76.98
2022-11-22T15:59:46.916Z,77.93
2022-11-22T16:02:29.838Z,78.10
2022-11-22T16:06:06.891Z,77.95
2022-11-22T16:07:58.650Z,77.79
2022-11-22T16:10:44.856Z,78.19
2022-11-22T16:13:14.335Z,78.09
2022-11-22T16:15:42.681Z,78.01
2022-11-22T16:18:27.700Z,77.89
2022-11-22T16:21:05.669Z,78.28
2022-11-22T16:23:37.367Z,78.59
2022-11-22T16:26:17.765Z,78.59
2022-11-22T16:28:51.385Z,78.46
2022-11-22T16:31:24.481Z,79.00
2022-11-22T16:33:54.727Z,78.67
2022-11-22T16:36:28.229Z,78.93
2022-11-22T16:38:56.715Z,78.84
2022-11-22T16:41:28.658Z,79.05
2022-11-22T16:44:02.767Z,78.89
2022-11-22T16:46:31.055Z,79.11
2022-11-22T16:48:59.258Z,79.19
2022-11-22T16:51:29.560Z,79.38
2022-11-22T16:54:06.164Z,79.24
2022-11-22T16:56:34.308Z,79.08
2022-11-22T16:59:05.384Z,79.32
2022-11-22T17:01:36.682Z,79.20
2022-11-22T17:04:05.240Z,79.50
2022-11-22T17:06:33.559Z,79.46
2022-11-22T17:09:01.752Z,79.49
2022-11-22T17:11:32.182Z,79.57
2022-11-22T17:14:00.843Z,79.62
2022-11-22T17:16:29.023Z,79.52
2022-11-22T17:18:57.180Z,79.65
2022-11-22T17:21:31.504Z,79.47
2022-11-22T17:24:21.980Z,79.63
2022-11-22T17:26:50.101Z,79.64
2022-11-22T17:29:48.828Z,79.72
2022-11-22T17:32:12.749Z,79.66
2022-11-22T17:34:40.848Z,79.57
2022-11-22T17:37:12.775Z,79.62
2022-11-22T17:39:41.186Z,79.67
2022-11-22T17:42:09.342Z,79.39
2022-11-22T17:44:37.442Z,79.77
2022-11-22T17:47:05.574Z,79.68
2022-11-22T17:49:33.928Z,79.62
2022-11-22T17:52:02.511Z,79.68
2022-11-22T17:54:30.654Z,79.51
2022-11-22T17:56:58.768Z,79.62
2022-11-22T17:59:26.891Z,79.27
2022-11-22T18:01:55.049Z,79.46
2022-11-22T18:04:23.175Z,79.55
2022-11-22T18:06:51.418Z,79.47
2022-11-22T18:09:19.560Z,79.29
2022-11-22T18:11:48.099Z,79.13
2022-11-22T18:14:16.283Z,78.49
2022-11-22T18:16:44.396Z,78.74
2022-11-22T18:19:13.770Z,78.77
2022-11-22T18:21:41.961Z,79.01
2022-11-22T18:24:10.195Z,78.77
2022-11-22T18:26:39.763Z,78.55
2022-11-22T18:31:59.393Z,78.81
2022-11-22T18:34:28.885Z,78.70
2022-11-22T18:37:02.109Z,78.99
2022-11-22T18:39:38.982Z,78.76
2022-11-22T18:42:16.903Z,78.88
2022-11-22T18:44:45.047Z,78.74
2022-11-22T18:47:13.227Z,78.48
2022-11-22T18:49:41.329Z,78.82
2022-11-22T18:52:12.072Z,78.69
2022-11-22T18:54:43.200Z,78.50
2022-11-22T18:57:11.541Z,78.47
2022-11-22T18:59:39.729Z,78.52
2022-11-22T19:02:07.911Z,78.63
2022-11-22T19:04:36.096Z,78.78
2022-11-22T19:07:04.515Z,78.53
2022-11-22T19:09:32.772Z,78.72
2022-11-22T19:12:00.884Z,78.53
2022-11-22T19:14:29.645Z,78.32
2022-11-22T19:16:58.089Z,78.38
2022-11-22T19:19:26.327Z,78.21
2022-11-22T19:21:54.421Z,78.21
2022-11-22T19:24:22.649Z,78.41
2022-11-22T19:26:51.084Z,78.31
2022-11-22T19:29:19.529Z,78.40
2022-11-22T19:31:47.722Z,78.39
2022-11-22T19:34:16.007Z,78.42
2022-11-22T19:36:44.191Z,78.44
2022-11-22T19:39:14.896Z,78.26
2022-11-22T19:41:44.522Z,78.34
2022-11-22T19:44:12.777Z,78.31
2022-11-22T19:46:41.683Z,78.29
2022-11-22T19:49:10.597Z,78.26
2022-11-22T19:51:39.136Z,78.26
2022-11-22T19:54:07.747Z,78.22
2022-11-22T19:56:38.185Z,78.43
2022-11-22T19:59:09.933Z,78.40
2022-11-22T20:01:39.855Z,78.46
2022-11-22T20:04:10.795Z,78.40
2022-11-22T20:06:38.930Z,78.48
2022-11-22T20:09:10.792Z,78.51
2022-11-22T20:11:40.828Z,78.55
2022-11-22T20:14:09.807Z,78.42
2022-11-22T20:16:42.823Z,78.75
2022-11-22T20:19:12.653Z,78.55
2022-11-22T20:21:41.368Z,78.52
2022-11-22T20:24:09.935Z,78.79
2022-11-22T20:26:38.173Z,78.63
2022-11-22T20:29:11.984Z,78.66
2022-11-22T20:31:41.233Z,78.61
2022-11-22T20:34:10.071Z,78.84
2022-11-22T20:36:38.473Z,78.85
2022-11-22T20:39:10.746Z,78.80
2022-11-22T20:41:40.688Z,78.88
2022-11-22T20:44:13.796Z,78.78
2022-11-22T20:46:41.948Z,78.85
2022-11-22T20:49:10.202Z,78.96
2022-11-22T20:51:40.042Z,78.90
2022-11-22T20:54:10.127Z,79.07
2022-11-22T20:56:38.749Z,79.13
2022-11-22T20:59:07.159Z,79.02
2022-11-22T21:01:36.194Z,79.25
2022-11-22T21:04:04.473Z,79.18
2022-11-22T21:06:34.562Z,79.13
2022-11-22T21:09:03.635Z,79.16
2022-11-22T21:11:32.179Z,79.21
2022-11-22T21:14:00.705Z,79.17
2022-11-22T21:16:29.951Z,79.25
2022-11-22T21:19:06.878Z,79.39
2022-11-22T21:21:36.430Z,79.25
2022-11-22T21:24:06.176Z,79.33
2022-11-22T21:26:34.782Z,79.35
2022-11-22T21:29:04.951Z,79.45
2022-11-22T21:31:33.228Z,79.40
2022-11-22T21:34:01.354Z,79.66
2022-11-22T21:36:29.542Z,79.32
2022-11-22T21:38:57.962Z,79.34
2022-11-22T21:41:41.769Z,79.34
2022-11-22T21:44:11.106Z,79.38
2022-11-22T21:46:39.653Z,79.44
2022-11-22T21:49:08.016Z,79.29
2022-11-22T21:51:36.249Z,79.44
2022-11-22T21:54:04.666Z,79.67
2022-11-22T21:56:33.287Z,79.50
2022-11-22T21:59:01.729Z,79.65
2022-11-22T22:01:30.373Z,79.65
2022-11-22T22:03:58.672Z,79.46
2022-11-22T22:06:26.989Z,79.61
2022-11-22T22:08:55.216Z,79.63
2022-11-22T22:11:23.861Z,79.53
2022-11-22T22:13:58.960Z,79.36
2022-11-22T22:16:27.347Z,79.53
2022-11-22T22:18:55.590Z,79.46
2022-11-22T22:21:23.763Z,79.40
2022-11-22T22:23:53.710Z,79.42
2022-11-22T22:26:21.892Z,79.22
2022-11-22T22:28:50.174Z,79.41
2022-11-22T22:31:22.549Z,79.17
2022-11-22T22:33:55.108Z,79.11
2022-11-22T22:36:25.675Z,78.98
2022-11-22T22:38:55.062Z,79.08
2022-11-22T22:41:23.391Z,78.89
2022-11-22T22:43:51.922Z,78.97
2022-11-22T22:46:22.942Z,78.85
2022-11-22T22:48:52.041Z,78.89
2022-11-22T22:51:31.879Z,78.92
2022-11-22T22:54:01.761Z,78.68
2022-11-22T22:56:31.568Z,78.78
2022-11-22T22:59:01.127Z,78.84
2022-11-22T23:01:31.209Z,78.79
2022-11-22T23:04:02.008Z,78.61
2022-11-22T23:06:37.016Z,78.30
2022-11-22T23:09:09.734Z,78.17
2022-11-22T23:11:56.881Z,77.46
2022-11-22T23:14:28.438Z,77.49
2022-11-22T23:16:58.353Z,77.50
2022-11-22T23:19:27.426Z,77.61
2022-11-22T23:21:56.039Z,77.51
2022-11-22T23:24:24.417Z,77.32
2022-11-22T23:26:52.596Z,77.20
2022-11-22T23:29:20.767Z,77.37
2022-11-22T23:31:48.940Z,77.18
2022-11-22T23:34:17.150Z,77.53
2022-11-22T23:36:45.438Z,77.19
2022-11-22T23:39:13.777Z,77.13
2022-11-22T23:41:42.363Z,76.45
2022-11-22T23:44:10.806Z,76.59
2022-11-22T23:46:39.015Z,76.02
2022-11-22T23:49:07.223Z,76.22
2022-11-22T23:51:36.115Z,76.02
2022-11-22T23:54:06.333Z,75.98
2022-11-22T23:56:35.674Z,76.18
2022-11-22T23:59:05.631Z,75.88
